Time;durP1;ratioP1;P1;durP2;ratioP2;P2;SDS_P1;SDS_P2;PMS_P1;PMS_P2;Temp;Humidity;BMP_temperature;BMP_pressure;BME280_temperature;BME280_humidity;BME280_pressure;Samples;Min_cycle;Max_cycle;Signal;HPM_P1;HPM_P2
2020/12/04 00:01:29;;;;;;;21.87;12.13;;;2.50;99.90;;;;;;5016464;28;20187;-60
2020/12/04 00:03:54;;;;;;;20.50;10.80;;;2.40;99.90;;;;;;5016328;28;20430;-62
2020/12/04 00:06:20;;;;;;;17.17;11.23;;;2.60;1.00;;;;;;5028089;28;20217;-62
2020/12/04 00:08:45;;;;;;;17.30;11.57;;;2.60;99.90;;;;;;5025979;28;20604;-62
2020/12/04 00:11:11;;;;;;;21.07;12.17;;;2.70;99.90;;;;;;5016195;28;20600;-60
2020/12/04 00:13:36;;;;;;;18.50;11.87;;;2.60;1.00;;;;;;5016088;28;20179;-60
2020/12/04 00:16:02;;;;;;;22.93;13.03;;;2.60;1.00;;;;;;5013446;28;20429;-63
2020/12/04 00:18:27;;;;;;;20.00;12.50;;;2.70;99.90;;;;;;5016120;28;20594;-63
2020/12/04 00:20:53;;;;;;;19.30;10.67;;;2.70;9.60;;;;;;5015979;28;20251;-63
2020/12/04 00:23:18;;;;;;;21.40;11.77;;;2.80;1.00;;;;;;5016293;28;20519;-62
2020/12/04 00:25:44;;;;;;;20.00;10.43;;;2.70;1.00;;;;;;5016251;28;20224;-62
2020/12/04 00:28:09;;;;;;;22.47;14.60;;;2.60;99.90;;;;;;5015196;28;20293;-62
2020/12/04 00:30:35;;;;;;;17.07;10.27;;;2.50;1.00;;;;;;5015918;28;20218;-62
2020/12/04 00:33:00;;;;;;;22.73;13.00;;;2.50;46.70;;;;;;5015796;28;20175;-62
2020/12/04 00:35:26;;;;;;;18.97;11.80;;;2.50;99.90;;;;;;5015468;28;20640;-63
2020/12/04 00:37:51;;;;;;;19.20;11.67;;;2.40;1.00;;;;;;5015642;28;20189;-63
2020/12/04 00:40:17;;;;;;;20.97;11.10;;;2.30;1.00;;;;;;5015751;28;20182;-63
2020/12/04 00:42:45;;;;;;;18.90;12.17;;;2.30;99.90;;;;;;5015695;28;20603;-62
2020/12/04 00:45:10;;;;;;;19.23;12.00;;;2.30;99.90;;;;;;5015298;28;20433;-64
2020/12/04 00:47:36;;;;;;;17.67;10.73;;;2.30;1.00;;;;;;5015727;28;20521;-65
2020/12/04 00:50:01;;;;;;;17.50;10.60;;;2.30;99.90;;;;;;5016107;28;20206;-64
2020/12/04 00:52:29;;;;;;;16.63;10.83;;;2.20;1.80;;;;;;5014824;28;20439;-62
2020/12/04 00:54:54;;;;;;;21.75;13.30;;;2.10;40.00;;;;;;5015318;28;20500;-62
2020/12/04 00:57:20;;;;;;;19.20;11.70;;;2.20;99.90;;;;;;5015237;28;20179;-62
2020/12/04 00:59:45;;;;;;;23.17;12.23;;;2.20;99.90;;;;;;5015304;28;20253;-62
2020/12/04 01:02:11;;;;;;;19.43;11.93;;;2.10;1.00;;;;;;5015517;28;20611;-63
2020/12/04 01:04:36;;;;;;;15.27;9.50;;;2.00;99.90;;;;;;5015028;28;20175;-63
2020/12/04 01:07:06;;;;;;;18.80;11.90;;;2.00;99.90;;;;;;5015254;28;20614;-62
2020/12/04 01:09:32;;;;;;;19.65;11.23;;;2.00;98.70;;;;;;5015432;28;20214;-62
2020/12/04 01:11:58;;;;;;;22.80;11.73;;;1.90;1.00;;;;;;5015056;28;20624;-62
2020/12/04 01:14:24;;;;;;;18.45;10.85;;;1.90;99.90;;;;;;5014732;28;20254;-60
2020/12/04 01:16:50;;;;;;;18.63;9.20;;;1.80;1.00;;;;;;5014992;28;20278;-60
2020/12/04 01:19:15;;;;;;;18.77;10.30;;;1.70;17.30;;;;;;5014962;28;20187;-60
2020/12/04 01:21:41;;;;;;;19.47;11.70;;;1.70;5.30;;;;;;5014781;28;20260;-60
2020/12/04 01:24:06;;;;;;;20.43;11.53;;;1.70;9.60;;;;;;5014675;28;20179;-62
2020/12/04 01:26:32;;;;;;;20.80;12.60;;;1.90;99.90;;;;;;5013795;28;20666;-64
2020/12/04 01:28:57;;;;;;;17.77;10.43;;;1.80;99.90;;;;;;5013806;28;20202;-61
2020/12/04 01:31:23;;;;;;;20.33;12.90;;;1.80;99.90;;;;;;5014776;28;20519;-62
2020/12/04 01:33:48;;;;;;;17.77;11.10;;;1.90;1.00;;;;;;5014502;28;20261;-61
2020/12/04 01:36:15;;;;;;;23.50;11.43;;;1.90;99.90;;;;;;5014712;28;20236;-60
2020/12/04 01:38:41;;;;;;;18.27;10.93;;;1.90;1.00;;;;;;5014527;28;20244;-62
2020/12/04 01:41:06;;;;;;;20.48;13.07;;;1.80;1.00;;;;;;5013567;28;20328;-61
2020/12/04 01:43:32;;;;;;;18.30;10.47;;;1.80;1.00;;;;;;5014375;28;20269;-63
2020/12/04 01:45:58;;;;;;;20.23;11.27;;;1.80;1.00;;;;;;5014714;28;20197;-64
2020/12/04 01:48:25;;;;;;;15.82;9.70;;;1.90;1.00;;;;;;5014306;28;20326;-64
2020/12/04 01:50:51;;;;;;;21.45;12.18;;;1.80;1.00;;;;;;5014476;28;20531;-63
2020/12/04 01:53:22;;;;;;;14.38;9.63;;;1.70;1.00;;;;;;5014691;28;20281;-62
2020/12/04 01:55:49;;;;;;;16.85;10.40;;;1.60;1.00;;;;;;5014484;28;20189;-62
2020/12/04 01:58:17;;;;;;;21.23;11.50;;;1.60;99.90;;;;;;5013510;28;20266;-62
2020/12/04 02:00:43;;;;;;;22.10;12.23;;;1.60;99.90;;;;;;5014380;28;20232;-62
2020/12/04 02:03:10;;;;;;;21.90;11.80;;;1.50;99.90;;;;;;5013123;28;20194;-62
2020/12/04 02:05:41;;;;;;;21.38;12.35;;;1.50;99.90;;;;;;5014345;28;20638;-62
2020/12/04 02:08:16;;;;;;;16.20;11.10;;;1.50;99.90;;;;;;5014247;28;20261;-61
2020/12/04 02:10:48;;;;;;;21.35;12.20;;;1.40;99.90;;;;;;5013177;28;20206;-60
2020/12/04 02:13:14;;;;;;;17.23;11.65;;;1.40;99.90;;;;;;5014086;28;20236;-61
2020/12/04 02:15:40;;;;;;;22.20;12.00;;;1.30;99.90;;;;;;5014033;28;20401;-61
2020/12/04 02:18:06;;;;;;;22.02;13.13;;;1.20;99.90;;;;;;5014349;28;20250;-61
2020/12/04 02:20:33;;;;;;;19.17;9.60;;;1.30;1.00;;;;;;5014286;28;20278;-64
2020/12/04 02:22:59;;;;;;;23.85;11.63;;;1.20;99.90;;;;;;5014586;28;20237;-64
2020/12/04 02:25:24;;;;;;;22.70;12.53;;;1.10;99.90;;;;;;5014461;28;20488;-63
2020/12/04 02:27:50;;;;;;;18.87;11.23;;;1.10;1.00;;;;;;5013942;28;20633;-62
2020/12/04 02:30:33;;;;;;;23.67;13.57;;;1.00;1.00;;;;;;5013910;28;20280;-62
2020/12/04 02:32:59;;;;;;;22.33;12.48;;;1.10;1.00;;;;;;5013910;28;20889;-62
2020/12/04 02:35:25;;;;;;;17.80;11.32;;;1.00;1.00;;;;;;5013602;28;20277;-62
2020/12/04 02:37:52;;;;;;;23.97;13.00;;;1.00;99.90;;;;;;5013899;28;20594;-61
2020/12/04 02:40:18;;;;;;;21.98;11.65;;;1.00;99.90;;;;;;5017021;28;20200;-61
2020/12/04 02:42:44;;;;;;;22.17;14.33;;;1.00;99.90;;;;;;5017826;28;20266;-61
2020/12/04 02:45:10;;;;;;;25.53;11.23;;;1.00;1.00;;;;;;5017791;28;20449;-62
2020/12/04 02:47:36;;;;;;;23.38;12.50;;;0.90;99.90;;;;;;5017917;28;20183;-61
2020/12/04 02:50:02;;;;;;;23.50;14.00;;;0.90;1.00;;;;;;5018130;28;20497;-63
2020/12/04 02:52:27;;;;;;;19.90;11.50;;;0.90;1.00;;;;;;5017618;28;20599;-62
2020/12/04 02:54:53;;;;;;;20.73;13.27;;;1.10;1.00;;;;;;5017299;28;20190;-63
2020/12/04 02:57:18;;;;;;;22.83;12.50;;;1.00;99.90;;;;;;5016539;28;20178;-62
2020/12/04 02:59:44;;;;;;;23.03;13.10;;;0.90;99.90;;;;;;5017970;28;20186;-64
2020/12/04 03:02:10;;;;;;;22.83;11.87;;;0.90;99.90;;;;;;5017744;28;20182;-62
2020/12/04 03:04:36;;;;;;;24.23;14.27;;;1.00;99.90;;;;;;5017296;28;20237;-62
2020/12/04 03:07:01;;;;;;;25.75;13.50;;;0.90;99.90;;;;;;5016479;28;20190;-61
2020/12/04 03:09:27;;;;;;;22.80;12.17;;;0.80;99.90;;;;;;5017269;28;20214;-62
2020/12/04 03:11:57;;;;;;;20.97;12.03;;;0.80;99.90;;;;;;5017249;28;20178;-62
2020/12/04 03:14:22;;;;;;;23.55;12.98;;;0.90;99.90;;;;;;5017176;28;20182;-60
2020/12/04 03:16:48;;;;;;;20.40;12.20;;;0.80;99.90;;;;;;5017381;28;20179;-62
2020/12/04 03:19:14;;;;;;;25.97;12.83;;;0.80;99.90;;;;;;5017520;28;20202;-63
2020/12/04 03:21:39;;;;;;;25.67;12.47;;;0.90;99.90;;;;;;5017091;28;20460;-60
2020/12/04 03:24:05;;;;;;;22.13;13.70;;;0.90;92.90;;;;;;5016431;28;20656;-60
2020/12/04 03:26:30;;;;;;;28.17;13.37;;;0.90;96.40;;;;;;5016931;28;20248;-62
2020/12/04 03:28:56;;;;;;;24.33;13.13;;;0.90;99.90;;;;;;5016941;28;20236;-62
2020/12/04 03:31:21;;;;;;;24.20;14.70;;;0.90;1.00;;;;;;5017103;28;20265;-62
2020/12/04 03:33:47;;;;;;;22.03;11.20;;;0.80;99.90;;;;;;5016580;28;20194;-62
2020/12/04 03:36:12;;;;;;;25.07;13.90;;;0.90;99.90;;;;;;5017217;28;20173;-64
2020/12/04 03:38:38;;;;;;;25.10;14.13;;;0.80;99.90;;;;;;5016523;28;20550;-64
2020/12/04 03:41:04;;;;;;;25.80;13.30;;;0.80;99.90;;;;;;5017632;28;20183;-64
2020/12/04 03:43:29;;;;;;;22.60;13.33;;;0.90;99.90;;;;;;5016269;28;20182;-64
2020/12/04 03:45:54;;;;;;;22.83;14.20;;;0.80;99.90;;;;;;5017664;28;20507;-64
2020/12/04 03:48:20;;;;;;;18.90;11.20;;;0.80;99.90;;;;;;5017600;28;20182;-64
2020/12/04 03:50:46;;;;;;;23.63;12.17;;;0.70;99.90;;;;;;5017258;28;20269;-64
2020/12/04 03:53:11;;;;;;;24.63;13.30;;;0.80;1.00;;;;;;5017087;28;20188;-62
2020/12/04 03:55:36;;;;;;;27.17;14.40;;;0.80;1.00;;;;;;5015463;28;20594;-62
2020/12/04 03:58:02;;;;;;;20.57;10.73;;;0.80;1.00;;;;;;5015555;28;20189;-62
2020/12/04 04:00:27;;;;;;;24.53;11.60;;;0.80;1.00;;;;;;5016414;28;20237;-62
2020/12/04 04:02:56;;;;;;;21.87;13.37;;;0.80;1.00;;;;;;5016376;28;20217;-62
2020/12/04 04:05:22;;;;;;;19.30;11.52;;;0.90;1.00;;;;;;5016103;28;20179;-62
2020/12/04 04:07:50;;;;;;;23.53;11.30;;;0.80;1.00;;;;;;5016288;28;20289;-62
2020/12/04 04:10:18;;;;;;;26.45;14.60;;;0.80;1.00;;;;;;5015993;28;20210;-61
2020/12/04 04:12:44;;;;;;;19.52;11.60;;;0.80;1.00;;;;;;5016120;28;20602;-62
2020/12/04 04:15:12;;;;;;;23.63;14.40;;;0.70;1.00;;;;;;5016117;28;20182;-61
2020/12/04 04:17:37;;;;;;;23.67;14.18;;;0.90;1.00;;;;;;5016385;28;20274;-62
2020/12/04 04:20:04;;;;;;;25.17;12.43;;;0.90;1.00;;;;;;5016440;28;20212;-62
2020/12/04 04:22:30;;;;;;;23.20;11.73;;;0.90;1.00;;;;;;5016115;28;20207;-62
2020/12/04 04:24:55;;;;;;;22.93;11.53;;;0.80;99.90;;;;;;5016286;28;20218;-62
2020/12/04 04:27:21;;;;;;;24.60;12.90;;;0.80;1.00;;;;;;5016215;28;20182;-62
2020/12/04 04:29:46;;;;;;;29.37;14.37;;;0.80;1.00;;;;;;5016531;28;20253;-60
2020/12/04 04:32:12;;;;;;;21.37;11.83;;;0.80;1.00;;;;;;5016500;28;20591;-61
2020/12/04 04:34:37;;;;;;;25.10;12.53;;;0.90;1.00;;;;;;5016076;28;20195;-61
2020/12/04 04:37:03;;;;;;;20.73;12.07;;;0.90;99.90;;;;;;5014689;28;20209;-63
2020/12/04 04:39:28;;;;;;;23.60;12.90;;;0.90;99.90;;;;;;5015878;28;20262;-62
2020/12/04 04:41:55;;;;;;;20.73;12.67;;;1.00;99.90;;;;;;5015496;28;20186;-61
2020/12/04 04:44:23;;;;;;;21.70;13.25;;;0.90;99.90;;;;;;5014880;28;20191;-61
2020/12/04 04:47:03;;;;;;;22.85;13.30;;;1.00;99.90;;;;;;5014827;28;20213;-61
2020/12/04 04:49:34;;;;;;;19.80;12.45;;;1.00;99.90;;;;;;5015969;28;20213;-61
2020/12/04 04:52:01;;;;;;;21.65;13.38;;;1.10;99.90;;;;;;5016133;28;20560;-61
2020/12/04 04:54:30;;;;;;;20.00;10.68;;;1.00;1.00;;;;;;5015774;28;20183;-61
2020/12/04 04:56:55;;;;;;;20.83;12.10;;;1.10;1.00;;;;;;5015995;28;20175;-61
2020/12/04 04:59:21;;;;;;;17.97;10.20;;;1.10;1.00;;;;;;5015887;28;20233;-61
2020/12/04 05:01:48;;;;;;;22.67;12.95;;;1.10;1.00;;;;;;5015104;28;20622;-61
2020/12/04 05:04:17;;;;;;;17.80;11.25;;;1.10;1.00;;;;;;4998195;28;20186;-61
2020/12/04 05:06:43;;;;;;;20.52;12.85;;;1.10;1.00;;;;;;5015704;28;20185;-61
2020/12/04 05:09:20;;;;;;;20.38;12.30;;;1.10;1.00;;;;;;5014457;28;20190;-61
2020/12/04 05:12:00;;;;;;;21.02;11.65;;;1.10;1.00;;;;;;5015583;28;20178;-61
2020/12/04 05:14:26;;;;;;;22.65;11.90;;;1.20;1.00;;;;;;5015517;28;20261;-58
2020/12/04 05:16:53;;;;;;;22.00;12.23;;;1.40;1.00;;;;;;5015455;28;20660;-60
2020/12/04 05:19:37;;;;;;;20.80;12.85;;;1.30;99.90;;;;;;5015604;28;20266;-59
2020/12/04 05:22:16;;;;;;;19.70;11.77;;;1.20;99.90;;;;;;5015440;28;20505;-60
2020/12/04 05:24:47;;;;;;;22.20;13.43;;;1.30;99.90;;;;;;5015300;28;20195;-60
2020/12/04 05:27:29;;;;;;;24.30;13.85;;;1.20;99.90;;;;;;5015389;28;20179;-60
2020/12/04 05:29:59;;;;;;;24.02;11.55;;;1.30;99.90;;;;;;5015359;28;20233;-61
2020/12/04 05:32:26;;;;;;;21.98;12.68;;;1.40;34.70;;;;;;5015401;28;20233;-60
2020/12/04 05:35:05;;;;;;;21.25;11.07;;;1.30;8.80;;;;;;5014975;28;20194;-60
2020/12/04 05:37:30;;;;;;;21.73;11.95;;;1.20;99.90;;;;;;5015146;28;20691;-60
2020/12/04 05:39:56;;;;;;;22.37;12.77;;;1.30;99.90;;;;;;5015196;28;20178;-60
2020/12/04 05:42:35;;;;;;;18.90;11.60;;;1.30;99.90;;;;;;5015075;28;20425;-61
2020/12/04 05:45:07;;;;;;;20.75;13.68;;;1.20;99.90;;;;;;5014802;28;20192;-60
2020/12/04 05:47:41;;;;;;;25.00;13.38;;;1.30;1.00;;;;;;5014867;28;20186;-60
2020/12/04 05:50:13;;;;;;;21.63;12.65;;;1.30;1.00;;;;;;5015016;28;20293;-60
2020/12/04 05:52:40;;;;;;;27.65;13.88;;;1.40;1.00;;;;;;5014874;28;20240;-61
2020/12/04 05:55:07;;;;;;;25.00;13.10;;;1.50;1.00;;;;;;5014514;28;20175;-60
2020/12/04 05:57:52;;;;;;;23.75;12.63;;;1.50;1.00;;;;;;5014673;28;20457;-60
2020/12/04 06:00:21;;;;;;;21.08;13.60;;;1.40;1.00;;;;;;5014798;28;20240;-60
2020/12/04 06:02:56;;;;;;;23.35;12.73;;;1.40;1.00;;;;;;5014923;28;20187;-60
2020/12/04 06:05:25;;;;;;;22.77;13.50;;;1.40;1.00;;;;;;5014759;28;20193;-61
2020/12/04 06:07:56;;;;;;;23.63;13.68;;;1.40;99.90;;;;;;5013584;28;20188;-61
2020/12/04 06:10:22;;;;;;;26.60;14.98;;;1.50;99.90;;;;;;5014667;28;20306;-61
2020/12/04 06:12:52;;;;;;;24.53;13.50;;;1.50;99.90;;;;;;5014610;28;20207;-61
2020/12/04 06:15:26;;;;;;;23.23;12.15;;;1.40;1.00;;;;;;5014386;28;20179;-62
2020/12/04 06:17:59;;;;;;;24.85;14.00;;;1.30;1.00;;;;;;5014648;28;20174;-60
2020/12/04 06:20:24;;;;;;;24.08;13.68;;;1.40;54.00;;;;;;5014557;28;20186;-62
2020/12/04 06:23:09;;;;;;;23.43;13.40;;;1.40;99.90;;;;;;5014414;28;20186;-62
2020/12/04 06:25:58;;;;;;;26.13;15.40;;;1.30;1.00;;;;;;5014720;28;20251;-64
2020/12/04 06:28:32;;;;;;;26.42;14.57;;;1.40;99.90;;;;;;5014717;28;20603;-64
2020/12/04 06:31:03;;;;;;;24.63;13.48;;;1.30;35.40;;;;;;5013401;28;20213;-62
2020/12/04 06:33:45;;;;;;;26.35;15.27;;;1.40;99.90;;;;;;5013305;28;20621;-61
2020/12/04 06:36:30;;;;;;;24.77;14.77;;;1.40;99.90;;;;;;5013906;28;20552;-61
2020/12/04 06:38:59;;;;;;;27.70;13.88;;;1.40;1.00;;;;;;5013867;28;20465;-60
2020/12/04 06:41:34;;;;;;;28.73;14.20;;;1.40;1.00;;;;;;5012293;28;20607;-63
2020/12/04 06:44:06;;;;;;;27.08;14.13;;;1.50;1.00;;;;;;5013366;28;20180;-62
2020/12/04 06:46:36;;;;;;;22.98;13.82;;;1.50;1.00;;;;;;5013522;28;20485;-62
2020/12/04 06:49:08;;;;;;;27.38;15.05;;;1.50;1.00;;;;;;5013344;28;20248;-64
2020/12/04 06:51:34;;;;;;;28.30;16.40;;;1.50;1.00;;;;;;5013264;28;20277;-63
2020/12/04 06:53:59;;;;;;;23.73;13.97;;;1.40;1.00;;;;;;5013310;28;20205;-63
2020/12/04 06:56:26;;;;;;;25.93;14.63;;;1.50;1.00;;;;;;5013428;28;20456;-61
2020/12/04 06:58:51;;;;;;;30.33;15.07;;;1.60;1.00;;;;;;5013790;28;20185;-60
2020/12/04 07:01:18;;;;;;;29.63;14.60;;;1.60;99.90;;;;;;5013566;28;20178;-60
2020/12/04 07:03:48;;;;;;;27.02;14.30;;;1.60;99.90;;;;;;5013569;28;20417;-60
2020/12/04 07:06:24;;;;;;;21.30;12.35;;;1.60;99.90;;;;;;5013816;28;20332;-60
2020/12/04 07:08:57;;;;;;;25.92;15.23;;;1.50;99.90;;;;;;5014237;28;20273;-60
2020/12/04 07:11:24;;;;;;;28.83;15.27;;;1.50;1.00;;;;;;5014541;28;20663;-60
2020/12/04 07:13:50;;;;;;;27.10;13.32;;;1.40;99.90;;;;;;5013908;28;20182;-60
2020/12/04 07:16:15;;;;;;;24.20;14.00;;;1.40;1.00;;;;;;5013703;28;20269;-60
2020/12/04 07:18:41;;;;;;;28.90;15.57;;;1.50;1.00;;;;;;5013677;28;20903;-60
2020/12/04 07:21:07;;;;;;;26.27;14.77;;;1.60;22.20;;;;;;5013238;28;20916;-60
2020/12/04 07:23:35;;;;;;;23.10;13.07;;;1.60;1.00;;;;;;5013205;28;20483;-59
2020/12/04 07:26:05;;;;;;;26.90;14.80;;;1.60;42.30;;;;;;5015927;28;20191;-59
2020/12/04 07:28:32;;;;;;;23.60;12.85;;;1.50;1.00;;;;;;5017245;28;20186;-59
2020/12/04 07:30:58;;;;;;;32.35;16.17;;;1.50;99.90;;;;;;5017333;28;20374;-63
2020/12/04 07:33:24;;;;;;;29.58;15.85;;;1.70;99.90;;;;;;5017185;28;20170;-63
2020/12/04 07:35:49;;;;;;;28.43;15.70;;;1.70;99.90;;;;;;5017675;28;20178;-63
2020/12/04 07:38:15;;;;;;;26.37;16.53;;;1.60;1.00;;;;;;5017408;28;20269;-63
2020/12/04 07:40:41;;;;;;;23.30;14.67;;;1.60;1.00;;;;;;5016565;28;20182;-63
2020/12/04 07:43:11;;;;;;;26.63;14.48;;;1.60;23.20;;;;;;5017488;28;20183;-63
2020/12/04 07:45:36;;;;;;;26.90;16.38;;;1.60;1.00;;;;;;5017739;28;20187;-63
2020/12/04 07:48:11;;;;;;;24.57;14.20;;;1.50;99.90;;;;;;5017810;28;20241;-63
2020/12/04 07:50:36;;;;;;;26.00;13.93;;;1.60;99.90;;;;;;5017291;28;20206;-63
2020/12/04 07:53:02;;;;;;;27.83;15.73;;;1.60;99.90;;;;;;5017238;28;20185;-63
2020/12/04 07:55:36;;;;;;;24.25;14.85;;;1.60;99.90;;;;;;5016555;28;20167;-63
2020/12/04 07:58:14;;;;;;;32.28;14.80;;;1.60;99.90;;;;;;5016702;28;20186;-63
2020/12/04 08:00:42;;;;;;;29.73;14.30;;;1.70;1.00;;;;;;5016312;28;20236;-63
2020/12/04 08:03:15;;;;;;;29.25;18.08;;;1.70;1.00;;;;;;5016679;28;20692;-63
2020/12/04 08:05:41;;;;;;;30.58;15.95;;;1.60;1.00;;;;;;5016668;28;20272;-63
2020/12/04 08:08:07;;;;;;;27.13;15.30;;;1.60;6.80;;;;;;5016890;28;20610;-63
2020/12/04 08:10:33;;;;;;;20.05;12.38;;;1.60;2.90;;;;;;5016310;28;20210;-63
2020/12/04 08:12:59;;;;;;;27.83;15.83;;;1.60;19.90;;;;;;5015499;28;20189;-63
2020/12/04 08:15:25;;;;;;;24.07;14.47;;;1.70;99.90;;;;;;5015856;28;20191;-63
2020/12/04 08:18:06;;;;;;;23.80;14.75;;;1.70;99.90;;;;;;5016083;28;20288;-63
2020/12/04 08:20:32;;;;;;;28.20;15.40;;;1.70;1.00;;;;;;5016343;28;20190;-63
2020/12/04 08:22:58;;;;;;;31.85;15.73;;;1.70;1.00;;;;;;5015386;28;20194;-63
2020/12/04 08:25:25;;;;;;;28.73;16.67;;;1.70;1.00;;;;;;5015981;28;20183;-63
2020/12/04 08:27:51;;;;;;;23.73;14.15;;;1.70;1.00;;;;;;5016428;28;20189;-63
2020/12/04 08:30:19;;;;;;;26.58;15.27;;;1.70;1.00;;;;;;5012750;28;20268;-63
2020/12/04 08:32:54;;;;;;;24.88;14.05;;;1.60;99.90;;;;;;5014087;28;20489;-65
2020/12/04 08:35:25;;;;;;;27.73;15.23;;;1.80;1.00;;;;;;5014254;28;20186;-65
2020/12/04 08:37:52;;;;;;;26.35;15.38;;;1.70;99.90;;;;;;5015583;28;20627;-65
2020/12/04 08:40:28;;;;;;;25.90;14.13;;;1.70;99.90;;;;;;5014595;28;20245;-65
2020/12/04 08:43:07;;;;;;;26.33;16.27;;;1.70;99.90;;;;;;5015470;28;20210;-65
2020/12/04 08:45:33;;;;;;;26.95;14.40;;;1.70;1.00;;;;;;5015636;28;20228;-64
2020/12/04 08:48:26;;;;;;;25.37;13.90;;;1.60;17.70;;;;;;4998174;28;20214;-64
2020/12/04 08:50:57;;;;;;;53.75;26.17;;;1.70;99.90;;;;;;5015599;28;20234;-63
2020/12/04 08:53:24;;;;;;;21.50;12.32;;;1.80;99.90;;;;;;5014589;28;20246;-63
2020/12/04 08:55:57;;;;;;;25.05;14.93;;;1.70;30.00;;;;;;5015258;28;20198;-63
2020/12/04 08:58:24;;;;;;;32.45;17.15;;;1.70;1.00;;;;;;5014949;28;20469;-63
2020/12/04 09:00:52;;;;;;;21.00;12.70;;;1.90;49.20;;;;;;5014203;28;20182;-63
2020/12/04 09:03:19;;;;;;;29.98;14.35;;;1.90;1.00;;;;;;5015094;28;20244;-63
2020/12/04 09:05:45;;;;;;;23.23;14.55;;;1.90;1.00;;;;;;5015056;28;20780;-63
2020/12/04 09:08:11;;;;;;;20.40;13.60;;;1.90;1.00;;;;;;5015095;28;20193;-63
2020/12/04 09:10:37;;;;;;;19.30;11.47;;;2.00;1.00;;;;;;5015064;28;20548;-64
2020/12/04 09:13:04;;;;;;;20.67;14.85;;;2.00;1.00;;;;;;5015483;28;20175;-63
2020/12/04 09:15:30;;;;;;;27.55;15.63;;;2.00;99.90;;;;;;5013229;28;20325;-62
2020/12/04 09:17:56;;;;;;;25.73;14.03;;;2.20;1.00;;;;;;5014561;28;20241;-63
2020/12/04 09:20:23;;;;;;;24.88;13.05;;;2.10;99.90;;;;;;5014588;28;20436;-64
2020/12/04 09:22:48;;;;;;;21.45;13.23;;;2.10;99.90;;;;;;5014709;28;20228;-63
2020/12/04 09:25:15;;;;;;;23.40;11.47;;;2.10;94.80;;;;;;5014771;28;20541;-63
2020/12/04 09:27:41;;;;;;;22.60;14.27;;;2.10;99.90;;;;;;5014743;28;20183;-62
2020/12/04 09:30:09;;;;;;;23.02;14.10;;;2.10;99.90;;;;;;5014572;28;20297;-62
2020/12/04 09:32:35;;;;;;;25.45;14.48;;;2.10;99.90;;;;;;5014370;28;20175;-62
2020/12/04 09:35:02;;;;;;;25.90;14.05;;;2.10;99.90;;;;;;5014657;28;20505;-63
2020/12/04 09:37:30;;;;;;;24.90;13.93;;;2.20;1.00;;;;;;5014719;28;20178;-63
2020/12/04 09:40:02;;;;;;;20.67;13.30;;;2.40;1.00;;;;;;5013404;28;20195;-64
2020/12/04 09:42:28;;;;;;;24.83;14.85;;;2.50;99.90;;;;;;5014391;28;20183;-63
2020/12/04 09:44:55;;;;;;;26.37;13.83;;;2.30;99.90;;;;;;5014079;28;20193;-63
2020/12/04 09:47:23;;;;;;;24.75;14.25;;;2.30;1.00;;;;;;5012612;28;20201;-63
2020/12/04 09:49:49;;;;;;;24.40;14.50;;;2.50;1.00;;;;;;5009950;28;20381;-63
2020/12/04 09:52:16;;;;;;;27.77;16.23;;;2.50;1.00;;;;;;5014090;28;20266;-63
2020/12/04 09:54:44;;;;;;;22.42;15.05;;;2.50;1.00;;;;;;5013070;28;20186;-63
2020/12/04 09:57:12;;;;;;;21.88;13.25;;;2.50;1.00;;;;;;5014620;28;20563;-64
2020/12/04 09:59:38;;;;;;;27.02;14.30;;;2.50;99.90;;;;;;5014423;28;20261;-63
2020/12/04 10:02:05;;;;;;;23.93;13.17;;;2.60;1.00;;;;;;5014530;28;20207;-63
2020/12/04 10:04:30;;;;;;;21.77;14.05;;;2.70;1.00;;;;;;5014287;28;20492;-64
2020/12/04 10:06:57;;;;;;;36.90;18.73;;;2.70;99.90;;;;;;5014771;28;20525;-63
2020/12/04 10:09:24;;;;;;;26.80;13.27;;;2.80;99.90;;;;;;5014629;28;20461;-63
2020/12/04 10:11:50;;;;;;;25.23;13.45;;;2.70;99.90;;;;;;5014530;28;20511;-63
2020/12/04 10:14:17;;;;;;;24.52;13.65;;;2.70;99.90;;;;;;5014182;28;20574;-63
2020/12/04 10:16:44;;;;;;;26.08;14.98;;;2.70;99.90;;;;;;5014769;28;20541;-63
2020/12/04 10:19:12;;;;;;;26.15;15.10;;;2.70;1.00;;;;;;5014682;28;20193;-63
2020/12/04 10:21:37;;;;;;;25.70;14.23;;;2.70;1.00;;;;;;5014650;28;20185;-63
2020/12/04 10:24:05;;;;;;;26.07;15.47;;;2.70;99.90;;;;;;5014386;28;20179;-63
2020/12/04 10:26:31;;;;;;;28.42;13.68;;;2.70;1.00;;;;;;5014384;28;20174;-63
2020/12/04 10:28:57;;;;;;;24.90;13.75;;;2.70;99.90;;;;;;5014438;28;20194;-63
2020/12/04 10:31:23;;;;;;;21.25;12.95;;;2.60;99.90;;;;;;5014256;28;20214;-63
2020/12/04 10:33:49;;;;;;;23.92;12.90;;;2.70;1.00;;;;;;5013701;28;20182;-63
2020/12/04 10:36:14;;;;;;;23.27;12.53;;;2.70;99.90;;;;;;5014206;28;20619;-63
2020/12/04 10:38:41;;;;;;;24.33;12.87;;;2.80;1.00;;;;;;5010343;28;20514;-62
2020/12/04 10:41:07;;;;;;;22.80;14.15;;;2.80;99.90;;;;;;5009634;28;20214;-64
2020/12/04 10:43:33;;;;;;;25.92;13.98;;;2.80;99.90;;;;;;5002475;28;20213;-63
2020/12/04 10:45:58;;;;;;;28.80;14.90;;;2.90;1.00;;;;;;5011374;28;20198;-63
2020/12/04 10:48:24;;;;;;;25.93;13.93;;;3.00;99.90;;;;;;5006084;28;20194;-63
2020/12/04 10:50:49;;;;;;;24.53;13.20;;;3.00;99.90;;;;;;5014225;28;20309;-62
2020/12/04 10:53:15;;;;;;;23.00;12.83;;;2.90;1.00;;;;;;5015452;28;20178;-62
2020/12/04 10:55:46;;;;;;;23.93;13.80;;;2.80;99.90;;;;;;5017236;28;20427;-62
2020/12/04 10:58:13;;;;;;;27.48;16.08;;;2.90;99.90;;;;;;5042607;22;20240;-62
2020/12/04 11:00:38;;;;;;;30.02;16.73;;;3.10;99.90;;;;;;4978320;28;20570;-61
2020/12/04 11:03:24;;;;;;;27.87;15.20;;;3.00;1.00;;;;;;4978260;28;20200;-63
2020/12/04 11:05:50;;;;;;;22.08;13.63;;;3.00;1.00;;;;;;4978451;28;20259;-62
2020/12/04 11:08:15;;;;;;;21.92;13.27;;;3.00;99.90;;;;;;4977755;28;20213;-60
2020/12/04 11:10:42;;;;;;;25.20;15.63;;;3.00;99.90;;;;;;4977759;28;20783;-63
2020/12/04 11:13:08;;;;;;;23.58;14.55;;;3.10;99.90;;;;;;4977669;28;20179;-61
2020/12/04 11:15:34;;;;;;;23.37;14.70;;;3.20;99.90;;;;;;4977753;28;20286;-63
2020/12/04 11:18:00;;;;;;;22.37;14.10;;;3.20;99.90;;;;;;4977464;28;20440;-63
2020/12/04 11:20:26;;;;;;;21.67;13.13;;;3.10;1.00;;;;;;4977690;28;20537;-61
2020/12/04 11:22:52;;;;;;;21.52;14.52;;;3.10;1.00;;;;;;4977462;28;20595;-62
2020/12/04 11:25:19;;;;;;;22.80;13.33;;;3.20;12.10;;;;;;4977549;28;20191;-61
2020/12/04 11:27:46;;;;;;;25.00;15.45;;;3.30;99.90;;;;;;4976590;28;20721;-60
2020/12/04 11:30:13;;;;;;;19.73;13.68;;;3.50;99.90;;;;;;4976581;28;20590;-62
2020/12/04 11:32:41;;;;;;;20.88;13.13;;;3.60;1.00;;;;;;4977617;28;20188;-60
2020/12/04 11:35:08;;;;;;;24.73;14.95;;;3.60;99.90;;;;;;4977239;28;20625;-60
2020/12/04 11:37:35;;;;;;;25.33;15.23;;;3.60;99.90;;;;;;4977326;28;20183;-60
2020/12/04 11:40:02;;;;;;;28.10;14.80;;;3.70;99.90;;;;;;4988629;28;20909;-60
2020/12/04 11:42:28;;;;;;;26.88;16.10;;;3.70;98.40;;;;;;4995843;28;20612;-60
2020/12/04 11:44:55;;;;;;;27.07;14.67;;;3.80;1.00;;;;;;4997181;28;20183;-60
2020/12/04 11:47:20;;;;;;;21.75;13.15;;;3.90;1.00;;;;;;4997097;28;20183;-63
2020/12/04 11:49:46;;;;;;;23.23;14.07;;;3.80;99.90;;;;;;4996836;28;20509;-63
2020/12/04 11:52:11;;;;;;;22.63;13.27;;;3.90;99.90;;;;;;4996956;28;20179;-63
2020/12/04 11:54:37;;;;;;;21.10;13.40;;;4.00;99.90;;;;;;4996668;28;20208;-63
2020/12/04 11:57:02;;;;;;;24.10;13.37;;;3.90;99.90;;;;;;4980532;28;20246;-60
2020/12/04 11:59:28;;;;;;;23.33;12.63;;;3.80;99.90;;;;;;4976993;28;20196;-60
2020/12/04 12:01:56;;;;;;;28.13;13.70;;;4.00;1.00;;;;;;4977163;28;20200;-60
2020/12/04 12:04:21;;;;;;;24.92;14.20;;;4.20;1.00;;;;;;4976852;28;20212;-60
2020/12/04 12:06:47;;;;;;;23.23;12.50;;;4.20;1.00;;;;;;4976953;28;20297;-60
2020/12/04 12:09:12;;;;;;;25.43;14.27;;;3.90;1.00;;;;;;4977058;28;20195;-61
2020/12/04 12:11:38;;;;;;;25.03;14.20;;;3.80;99.90;;;;;;4976791;28;20176;-61
2020/12/04 12:14:03;;;;;;;25.20;14.37;;;3.80;99.90;;;;;;4976579;28;20176;-61
2020/12/04 12:16:29;;;;;;;22.63;13.07;;;4.00;1.00;;;;;;4976687;28;20184;-61
2020/12/04 12:18:54;;;;;;;21.47;13.93;;;4.20;99.90;;;;;;4976842;28;20192;-61
2020/12/04 12:21:20;;;;;;;23.50;13.47;;;4.10;59.90;;;;;;4976407;28;20206;-61
2020/12/04 12:23:45;;;;;;;23.70;14.90;;;4.10;99.90;;;;;;4976525;28;20184;-64
2020/12/04 12:26:12;;;;;;;24.13;13.57;;;4.10;18.40;;;;;;4976477;28;20247;-63
2020/12/04 12:28:38;;;;;;;21.20;12.68;;;4.10;49.10;;;;;;4976586;28;20259;-62
2020/12/04 12:31:05;;;;;;;20.42;14.13;;;4.00;1.00;;;;;;4976375;28;20212;-62
2020/12/04 12:33:31;;;;;;;24.10;13.18;;;4.10;1.00;;;;;;4975663;28;20184;-61
2020/12/04 12:35:56;;;;;;;25.80;14.70;;;4.20;40.70;;;;;;4973010;28;20192;-61
2020/12/04 12:38:22;;;;;;;22.67;13.60;;;4.20;1.00;;;;;;4973461;28;20184;-61
2020/12/04 12:40:48;;;;;;;24.80;13.93;;;4.30;95.80;;;;;;4976031;28;20204;-61
2020/12/04 12:43:13;;;;;;;23.70;13.27;;;4.10;1.00;;;;;;4975706;28;20239;-61